createdAt,value
2023-03-06T00:00:38.193Z,88.39
2023-03-06T00:03:06.134Z,88.66
2023-03-06T00:05:33.253Z,88.33
2023-03-06T00:08:00.345Z,88.28
2023-03-06T00:10:29.925Z,88.43
2023-03-06T00:13:00.393Z,88.67
2023-03-06T00:15:28.258Z,88.61
2023-03-06T00:17:56.166Z,88.52
2023-03-06T00:20:24.506Z,88.81
2023-03-06T00:22:51.521Z,88.86
2023-03-06T00:25:21.286Z,89.01
2023-03-06T00:27:49.103Z,89.04
2023-03-06T00:30:21.931Z,89.04
2023-03-06T00:32:49.556Z,89.00
2023-03-06T00:35:17.227Z,89.01
2023-03-06T00:37:44.802Z,88.63
2023-03-06T00:40:14.959Z,88.92
2023-03-06T00:42:41.808Z,89.08
2023-03-06T00:45:09.818Z,88.49
2023-03-06T00:47:37.658Z,88.40
2023-03-06T00:50:05.369Z,88.31
2023-03-06T00:52:32.661Z,88.57
2023-03-06T00:54:59.807Z,88.72
2023-03-06T00:57:27.106Z,88.29
2023-03-06T00:59:54.192Z,88.52
2023-03-06T01:02:21.525Z,88.48
2023-03-06T01:04:49.260Z,88.75
2023-03-06T01:07:16.411Z,88.81
2023-03-06T01:09:43.439Z,88.76
2023-03-06T01:12:10.593Z,89.13
2023-03-06T01:14:37.640Z,89.04
2023-03-06T01:17:04.967Z,89.26
2023-03-06T01:19:32.049Z,88.82
2023-03-06T01:21:59.190Z,89.37
2023-03-06T01:24:26.348Z,89.12
2023-03-06T01:26:56.762Z,89.14
2023-03-06T01:29:23.932Z,89.20
2023-03-06T01:31:51.197Z,89.10
2023-03-06T01:34:18.792Z,89.09
2023-03-06T01:36:45.864Z,88.69
2023-03-06T01:39:13.030Z,88.93
2023-03-06T01:41:40.106Z,89.01
2023-03-06T01:44:07.142Z,89.11
2023-03-06T01:46:42.225Z,89.40
2023-03-06T01:49:30.918Z,89.10
2023-03-06T01:52:03.508Z,89.33
2023-03-06T01:54:41.043Z,89.16
2023-03-06T01:57:30.858Z,89.13
2023-03-06T02:00:20.414Z,89.37
2023-03-06T02:02:55.276Z,89.69
2023-03-06T02:05:22.726Z,89.17
2023-03-06T02:07:50.960Z,89.67
2023-03-06T02:10:19.004Z,89.41
2023-03-06T02:12:47.501Z,89.31
2023-03-06T02:15:17.487Z,89.11
2023-03-06T02:17:45.977Z,88.77
2023-03-06T02:20:34.820Z,88.47
2023-03-06T02:23:13.969Z,88.43
2023-03-06T02:25:49.850Z,88.35
2023-03-06T02:28:20.707Z,88.43
2023-03-06T02:30:48.442Z,89.11
2023-03-06T02:33:18.099Z,88.96
2023-03-06T02:36:04.020Z,89.06
2023-03-06T02:38:40.917Z,89.01
2023-03-06T02:41:08.798Z,88.87
2023-03-06T02:43:39.352Z,88.80
2023-03-06T02:46:07.701Z,88.22
2023-03-06T02:48:35.108Z,88.70
2023-03-06T02:51:02.255Z,88.56
2023-03-06T02:53:29.280Z,87.74
2023-03-06T02:55:58.962Z,88.47
2023-03-06T02:58:25.978Z,88.25
2023-03-06T03:00:53.278Z,88.20
2023-03-06T03:03:21.293Z,88.15
2023-03-06T03:05:48.300Z,88.22
2023-03-06T03:08:22.959Z,87.89
2023-03-06T03:10:53.833Z,87.92
2023-03-06T03:13:21.032Z,87.48
2023-03-06T03:16:03.255Z,87.66
2023-03-06T03:18:30.465Z,87.16
2023-03-06T03:20:57.587Z,88.06
2023-03-06T03:23:25.081Z,87.38
2023-03-06T03:25:52.099Z,87.80
2023-03-06T03:28:20.298Z,88.26
2023-03-06T03:30:47.436Z,88.08
2023-03-06T03:33:14.542Z,88.57
2023-03-06T03:35:43.525Z,88.23
2023-03-06T03:38:10.624Z,88.07
2023-03-06T03:40:39.246Z,88.23
2023-03-06T03:43:06.387Z,88.71
2023-03-06T03:45:33.549Z,88.86
2023-03-06T03:48:00.575Z,88.43
2023-03-06T03:50:27.630Z,88.54
2023-03-06T03:52:54.775Z,88.70
2023-03-06T03:55:21.861Z,88.57
2023-03-06T03:57:49.221Z,88.42
2023-03-06T04:00:17.138Z,88.51
2023-03-06T04:03:01.207Z,88.56
2023-03-06T04:05:36.121Z,88.33
2023-03-06T04:08:06.020Z,88.69
2023-03-06T04:10:34.585Z,88.60
2023-03-06T04:13:02.857Z,88.51
2023-03-06T04:15:29.995Z,88.17
2023-03-06T04:17:57.175Z,88.16
2023-03-06T04:20:28.084Z,87.98
2023-03-06T04:22:56.418Z,87.33
2023-03-06T04:25:23.925Z,87.65
2023-03-06T04:27:51.180Z,87.46
2023-03-06T04:30:18.497Z,87.26
2023-03-06T04:32:45.608Z,87.44
2023-03-06T04:35:12.734Z,87.65
2023-03-06T04:37:52.121Z,87.53
2023-03-06T04:40:27.678Z,87.13
2023-03-06T04:42:56.778Z,87.64
2023-03-06T04:45:24.430Z,87.23
2023-03-06T04:47:51.489Z,86.97
2023-03-06T04:50:19.324Z,86.96
2023-03-06T04:52:46.809Z,87.29
2023-03-06T04:55:17.379Z,87.72
2023-03-06T04:57:46.303Z,87.37
2023-03-06T05:00:22.581Z,87.67
2023-03-06T05:02:50.616Z,87.86
2023-03-06T05:05:19.040Z,87.38
2023-03-06T05:07:46.063Z,87.62
2023-03-06T05:10:17.057Z,87.71
2023-03-06T05:12:44.492Z,87.45
2023-03-06T05:15:13.382Z,87.75
2023-03-06T05:17:40.772Z,87.54
2023-03-06T05:20:11.317Z,87.75
2023-03-06T05:22:38.713Z,87.41
2023-03-06T05:25:06.761Z,87.72
2023-03-06T05:27:34.117Z,87.46
2023-03-06T05:30:01.161Z,87.42
2023-03-06T05:32:28.540Z,87.93
2023-03-06T05:34:56.197Z,87.72
2023-03-06T05:37:23.594Z,87.37
2023-03-06T05:39:51.701Z,86.80
2023-03-06T05:42:18.798Z,87.12
2023-03-06T05:44:46.226Z,87.79
2023-03-06T05:47:13.916Z,87.66
2023-03-06T05:49:41.028Z,87.47
2023-03-06T05:52:08.921Z,88.07
2023-03-06T05:54:37.437Z,87.83
2023-03-06T05:57:05.478Z,87.67
2023-03-06T05:59:33.339Z,87.91
2023-03-06T06:02:01.467Z,87.97
2023-03-06T06:04:29.689Z,88.13
2023-03-06T06:06:59.564Z,87.93
2023-03-06T06:09:27.398Z,88.17
2023-03-06T06:11:57.251Z,87.56
2023-03-06T06:14:24.807Z,88.36
2023-03-06T06:16:52.759Z,88.18
2023-03-06T06:19:20.484Z,88.42
2023-03-06T06:21:49.049Z,88.49
2023-03-06T06:24:17.751Z,88.44
2023-03-06T06:26:45.618Z,88.24
2023-03-06T06:29:13.913Z,88.46
2023-03-06T06:31:41.617Z,88.25
2023-03-06T06:34:11.008Z,88.05
2023-03-06T06:36:38.685Z,87.99
2023-03-06T06:39:06.699Z,87.85
2023-03-06T06:41:51.027Z,87.73
2023-03-06T06:44:21.512Z,87.61
2023-03-06T06:47:21.347Z,87.93
2023-03-06T06:49:37.936Z,87.75
2023-03-06T06:52:06.472Z,87.81
2023-03-06T06:54:34.929Z,87.92
2023-03-06T06:57:02.103Z,87.91
2023-03-06T06:59:29.218Z,87.96
2023-03-06T07:01:56.258Z,87.73
2023-03-06T07:04:23.547Z,87.33
2023-03-06T07:06:50.602Z,87.49
2023-03-06T07:09:17.943Z,87.57
2023-03-06T07:11:45.010Z,86.70
2023-03-06T07:14:12.109Z,87.34
2023-03-06T07:16:39.866Z,86.72
2023-03-06T07:19:07.906Z,87.04
2023-03-06T07:21:35.011Z,87.03
2023-03-06T07:24:02.171Z,87.18
2023-03-06T07:26:29.348Z,86.81
2023-03-06T07:28:56.497Z,87.06
2023-03-06T07:31:26.560Z,87.28
2023-03-06T07:33:54.318Z,87.03
2023-03-06T07:36:23.699Z,86.98
2023-03-06T07:38:50.728Z,87.20
2023-03-06T07:41:21.864Z,86.86
2023-03-06T07:43:50.431Z,86.55
2023-03-06T07:46:17.826Z,87.12
2023-03-06T07:48:44.925Z,86.75
2023-03-06T07:51:20.508Z,86.71
2023-03-06T07:53:49.314Z,86.44
2023-03-06T07:56:17.163Z,86.65
2023-03-06T07:58:46.029Z,86.23
2023-03-06T08:01:16.486Z,86.65
2023-03-06T08:03:44.104Z,86.21
2023-03-06T08:06:16.314Z,86.47
2023-03-06T08:08:45.990Z,86.37
2023-03-06T08:11:16.076Z,86.50
2023-03-06T08:13:43.899Z,86.65
2023-03-06T08:16:11.175Z,86.48
2023-03-06T08:18:41.481Z,86.16
2023-03-06T08:21:12.038Z,86.43
2023-03-06T08:23:40.039Z,86.38
2023-03-06T08:26:19.870Z,86.45
2023-03-06T08:28:47.205Z,86.28
2023-03-06T08:31:36.181Z,86.00
2023-03-06T08:34:06.437Z,85.73
2023-03-06T08:36:33.596Z,84.57
2023-03-06T08:39:01.137Z,84.88
2023-03-06T08:41:28.419Z,84.55
2023-03-06T08:43:55.474Z,83.20
2023-03-06T08:46:25.179Z,82.76
2023-03-06T08:48:52.441Z,82.81
2023-03-06T08:51:20.422Z,82.04
2023-03-06T08:53:47.837Z,81.89
2023-03-06T08:56:27.162Z,81.82
2023-03-06T08:58:55.419Z,81.66
2023-03-06T09:01:31.280Z,81.51
2023-03-06T09:04:00.400Z,81.24
2023-03-06T09:06:31.194Z,81.08
2023-03-06T09:08:58.336Z,80.98
2023-03-06T09:11:26.634Z,81.03
2023-03-06T09:13:54.838Z,81.05
2023-03-06T09:16:22.061Z,81.17
2023-03-06T09:18:53.216Z,81.29
2023-03-06T09:21:25.227Z,80.87
2023-03-06T09:23:52.282Z,81.18
2023-03-06T09:26:19.758Z,81.07
2023-03-06T09:28:47.238Z,81.25
2023-03-06T09:31:17.686Z,80.55
2023-03-06T09:33:45.226Z,80.33
2023-03-06T09:36:21.305Z,79.43
2023-03-06T09:38:50.181Z,79.27
2023-03-06T09:41:41.774Z,78.69
2023-03-06T09:44:26.300Z,79.02
2023-03-06T09:47:15.326Z,78.75
2023-03-06T09:50:01.052Z,78.55
2023-03-06T09:52:46.169Z,78.63
2023-03-06T09:55:16.105Z,78.42
2023-03-06T09:58:25.607Z,78.39
2023-03-06T10:01:07.302Z,79.07
2023-03-06T10:03:38.311Z,79.13
2023-03-06T10:06:26.484Z,79.06
2023-03-06T10:09:11.243Z,79.01
2023-03-06T10:11:59.115Z,79.06
2023-03-06T10:14:38.020Z,79.16
2023-03-06T10:17:06.422Z,79.50
2023-03-06T10:19:36.270Z,79.51
2023-03-06T10:22:37.207Z,78.66
2023-03-06T10:25:24.930Z,79.02
2023-03-06T10:28:04.603Z,78.79
2023-03-06T10:30:50.900Z,78.88
2023-03-06T10:33:47.349Z,78.46
2023-03-06T10:36:19.703Z,79.06
2023-03-06T10:38:48.930Z,78.42
2023-03-06T10:41:36.830Z,78.76
2023-03-06T10:44:04.039Z,78.18
2023-03-06T10:46:40.081Z,77.94
2023-03-06T10:49:30.797Z,78.70
2023-03-06T10:52:20.915Z,79.10
2023-03-06T10:54:48.667Z,79.24
2023-03-06T10:57:24.561Z,79.72
2023-03-06T10:59:55.935Z,79.79
2023-03-06T11:02:39.812Z,79.77
2023-03-06T11:05:19.412Z,80.03
2023-03-06T11:08:00.750Z,80.27
2023-03-06T11:10:30.426Z,79.91
2023-03-06T11:13:03.188Z,79.84
2023-03-06T11:15:31.099Z,80.05
2023-03-06T11:18:24.514Z,80.07
2023-03-06T11:20:54.756Z,79.59
2023-03-06T11:23:41.371Z,79.54
2023-03-06T11:26:26.588Z,79.15
2023-03-06T11:29:23.230Z,78.99
2023-03-06T11:32:31.625Z,79.62
2023-03-06T11:35:06.463Z,79.20
2023-03-06T11:38:05.063Z,79.08
2023-03-06T11:40:40.631Z,79.34
2023-03-06T11:43:35.573Z,79.44
2023-03-06T11:46:21.848Z,79.54
2023-03-06T11:48:54.549Z,79.07
2023-03-06T11:51:26.170Z,78.99
2023-03-06T11:53:54.476Z,78.97
2023-03-06T11:56:55.387Z,78.47
2023-03-06T11:59:47.288Z,78.88
2023-03-06T12:02:37.927Z,78.88
2023-03-06T12:05:37.631Z,78.30
2023-03-06T12:08:23.344Z,78.30
2023-03-06T12:11:01.800Z,78.63
2023-03-06T12:14:02.117Z,78.50
2023-03-06T12:16:49.286Z,78.65
2023-03-06T12:19:43.931Z,79.03
2023-03-06T12:22:22.836Z,79.11
2023-03-06T12:24:52.775Z,79.33
2023-03-06T12:27:22.533Z,79.56
2023-03-06T12:29:55.755Z,79.47
2023-03-06T12:32:35.432Z,79.79
2023-03-06T12:35:31.918Z,79.46
2023-03-06T12:38:08.218Z,79.48
2023-03-06T12:41:01.293Z,79.68
2023-03-06T12:43:38.936Z,79.19
2023-03-06T12:46:16.208Z,79.41
2023-03-06T12:48:48.964Z,79.29
2023-03-06T12:51:20.697Z,79.46
2023-03-06T12:53:49.960Z,79.58
2023-03-06T12:56:19.060Z,79.30
2023-03-06T12:58:54.650Z,79.41
2023-03-06T13:01:49.133Z,79.16
2023-03-06T13:04:27.769Z,79.44
2023-03-06T13:07:00.130Z,79.79
2023-03-06T13:09:36.898Z,79.49
2023-03-06T13:12:15.791Z,79.46
2023-03-06T13:14:53.906Z,79.27
2023-03-06T13:17:24.639Z,79.44
2023-03-06T13:20:13.938Z,78.84
2023-03-06T13:22:45.717Z,79.42
2023-03-06T13:25:18.838Z,79.36
2023-03-06T13:27:54.965Z,79.26
2023-03-06T13:30:23.646Z,79.53
2023-03-06T13:32:55.070Z,79.73
2023-03-06T13:35:32.280Z,79.68
2023-03-06T13:38:00.676Z,79.56
2023-03-06T13:40:36.724Z,79.68
2023-03-06T13:43:15.276Z,80.14
2023-03-06T13:45:43.989Z,79.64
2023-03-06T13:48:47.675Z,79.89
2023-03-06T13:51:24.344Z,80.16
2023-03-06T13:54:09.772Z,80.49
2023-03-06T13:56:55.805Z,80.31
2023-03-06T13:59:34.829Z,80.37
2023-03-06T14:02:39.610Z,80.57
2023-03-06T14:05:15.514Z,80.48
2023-03-06T14:07:45.102Z,80.23
2023-03-06T14:10:25.019Z,80.08
2023-03-06T14:12:58.623Z,80.45
2023-03-06T14:15:43.158Z,80.59
2023-03-06T14:18:14.830Z,80.77
2023-03-06T14:20:50.971Z,80.38
2023-03-06T14:23:42.717Z,80.81
2023-03-06T14:26:26.672Z,80.76
2023-03-06T14:28:53.704Z,81.11
2023-03-06T14:31:24.683Z,81.10
2023-03-06T14:33:54.673Z,80.93
2023-03-06T14:36:25.432Z,80.99
2023-03-06T14:39:08.973Z,81.24
2023-03-06T14:41:37.051Z,81.62
2023-03-06T14:44:16.901Z,81.70
2023-03-06T14:46:55.297Z,81.23
2023-03-06T14:49:25.338Z,81.89
2023-03-06T14:51:56.969Z,81.55
2023-03-06T14:54:31.359Z,81.71
2023-03-06T14:57:06.102Z,81.97
2023-03-06T14:59:49.167Z,82.27
2023-03-06T15:02:21.741Z,82.21
2023-03-06T15:05:00.405Z,82.57
2023-03-06T15:07:32.648Z,82.25
2023-03-06T15:10:01.306Z,82.21
2023-03-06T15:12:31.335Z,82.06
2023-03-06T15:15:00.190Z,82.19
2023-03-06T15:17:27.306Z,82.23
2023-03-06T15:19:57.504Z,82.01
2023-03-06T15:22:28.855Z,82.05
2023-03-06T15:25:09.418Z,81.95
2023-03-06T15:27:36.614Z,81.98
2023-03-06T15:30:22.416Z,81.98
2023-03-06T15:32:49.852Z,81.97
2023-03-06T15:35:29.145Z,82.10
2023-03-06T15:37:57.566Z,82.23
2023-03-06T15:40:27.136Z,82.16
2023-03-06T15:42:54.534Z,82.17
2023-03-06T15:45:23.931Z,82.08
2023-03-06T15:47:53.554Z,82.25
2023-03-06T15:50:23.365Z,82.03
2023-03-06T15:52:51.124Z,81.78
2023-03-06T15:55:21.127Z,81.77
2023-03-06T15:57:54.957Z,81.78
2023-03-06T16:00:28.705Z,81.90
2023-03-06T16:02:57.225Z,81.69
2023-03-06T16:05:25.054Z,82.31
2023-03-06T16:07:52.260Z,82.01
2023-03-06T16:10:22.588Z,82.33
2023-03-06T16:13:13.098Z,82.65
2023-03-06T16:15:45.541Z,82.48
2023-03-06T16:18:13.290Z,82.26
2023-03-06T16:20:41.807Z,82.20
2023-03-06T16:23:12.325Z,82.46
2023-03-06T16:25:45.866Z,82.63
2023-03-06T16:28:16.620Z,82.13
2023-03-06T16:30:44.691Z,82.34
2023-03-06T16:33:13.351Z,82.50
2023-03-06T16:35:41.469Z,82.56
2023-03-06T16:38:10.625Z,82.46
2023-03-06T16:40:41.491Z,83.31
2023-03-06T16:43:10.808Z,83.46
2023-03-06T16:45:40.972Z,83.47
2023-03-06T16:48:11.253Z,83.68
2023-03-06T16:50:40.020Z,83.77
2023-03-06T16:53:08.115Z,84.32
2023-03-06T16:55:35.248Z,84.20
2023-03-06T16:58:02.516Z,84.27
2023-03-06T17:00:33.355Z,84.40
2023-03-06T17:03:01.884Z,84.09
2023-03-06T17:05:29.709Z,84.56
2023-03-06T17:07:56.851Z,84.60
2023-03-06T17:10:26.509Z,84.49
2023-03-06T17:12:55.519Z,85.01
2023-03-06T17:15:23.143Z,85.37
2023-03-06T17:17:51.778Z,85.51
2023-03-06T17:20:19.735Z,85.59
2023-03-06T17:22:46.842Z,85.59
2023-03-06T17:25:16.293Z,85.52
2023-03-06T17:27:43.357Z,85.84
2023-03-06T17:30:11.295Z,85.92
2023-03-06T17:32:41.192Z,85.86
2023-03-06T17:35:09.558Z,85.97
2023-03-06T17:37:36.840Z,86.57
2023-03-06T17:40:04.364Z,85.83
2023-03-06T17:42:31.492Z,85.92
2023-03-06T17:44:58.605Z,85.62
2023-03-06T17:47:25.719Z,86.46
2023-03-06T17:49:52.741Z,86.33
2023-03-06T17:52:19.775Z,86.43
2023-03-06T17:54:50.002Z,86.57
2023-03-06T17:57:17.129Z,86.59
2023-03-06T17:59:48.703Z,86.21
2023-03-06T18:02:16.631Z,87.01
2023-03-06T18:04:43.869Z,86.57
2023-03-06T18:07:11.328Z,87.35
2023-03-06T18:09:38.788Z,87.05
2023-03-06T18:12:06.207Z,86.85
2023-03-06T18:14:33.265Z,87.10
2023-03-06T18:17:00.515Z,86.75
2023-03-06T18:19:27.710Z,86.89
2023-03-06T18:21:54.909Z,87.28
2023-03-06T18:24:22.001Z,87.03
2023-03-06T18:26:49.185Z,86.88
2023-03-06T18:29:16.923Z,87.35
2023-03-06T18:31:44.094Z,87.25
2023-03-06T18:34:13.990Z,86.95
2023-03-06T18:36:43.725Z,87.10
2023-03-06T18:39:13.205Z,87.46
2023-03-06T18:41:41.557Z,87.82
2023-03-06T18:44:08.947Z,87.91
2023-03-06T18:46:38.418Z,87.88
2023-03-06T18:49:06.211Z,88.00
2023-03-06T18:51:34.047Z,88.17
2023-03-06T18:54:02.725Z,87.80
2023-03-06T18:56:30.464Z,87.89
2023-03-06T18:59:01.760Z,87.85
2023-03-06T19:01:30.891Z,88.37
2023-03-06T19:04:03.544Z,88.70
2023-03-06T19:06:30.895Z,88.71
2023-03-06T19:09:02.399Z,88.72
2023-03-06T19:11:30.593Z,89.13
2023-03-06T19:13:58.788Z,88.64
2023-03-06T19:16:28.340Z,88.54
2023-03-06T19:18:56.206Z,88.45
2023-03-06T19:21:26.007Z,88.71
2023-03-06T19:23:53.762Z,88.88
2023-03-06T19:26:21.338Z,88.53
2023-03-06T19:28:49.172Z,88.78
2023-03-06T19:31:21.457Z,88.58
2023-03-06T19:33:50.349Z,89.07
2023-03-06T19:36:18.821Z,88.61
2023-03-06T19:38:50.549Z,88.70
2023-03-06T19:41:18.170Z,88.99
2023-03-06T19:43:49.029Z,88.79
2023-03-06T19:46:16.852Z,89.33
2023-03-06T19:48:44.704Z,88.85
2023-03-06T19:51:11.902Z,88.60
2023-03-06T19:53:40.098Z,88.86
2023-03-06T19:56:10.622Z,88.57
2023-03-06T19:58:38.465Z,88.32
2023-03-06T20:01:17.637Z,88.31
2023-03-06T20:03:44.768Z,88.09
2023-03-06T20:06:18.613Z,88.03
2023-03-06T20:08:46.828Z,87.85
2023-03-06T20:11:21.989Z,87.99
2023-03-06T20:13:49.914Z,87.94
2023-03-06T20:16:18.255Z,87.59
2023-03-06T20:18:45.937Z,88.09
2023-03-06T20:21:15.057Z,87.96
2023-03-06T20:23:42.655Z,87.76
2023-03-06T20:26:15.138Z,88.13
2023-03-06T20:28:43.059Z,87.57
2023-03-06T20:31:16.942Z,87.71
2023-03-06T20:33:45.525Z,87.38
2023-03-06T20:36:18.915Z,87.34
2023-03-06T20:38:47.033Z,87.12
2023-03-06T20:41:15.809Z,87.67
2023-03-06T20:43:43.805Z,87.29
2023-03-06T20:46:12.620Z,87.70
2023-03-06T20:48:41.165Z,87.58
2023-03-06T20:51:15.124Z,87.86
2023-03-06T20:53:42.202Z,87.19
2023-03-06T20:56:14.047Z,87.58
2023-03-06T20:58:41.327Z,87.09
2023-03-06T21:01:08.655Z,87.17
2023-03-06T21:03:35.966Z,87.50
2023-03-06T21:06:03.074Z,87.51
2023-03-06T21:08:31.391Z,87.62
2023-03-06T21:10:58.577Z,87.82
2023-03-06T21:13:25.717Z,87.81
2023-03-06T21:15:52.820Z,88.10
2023-03-06T21:18:19.896Z,88.07
2023-03-06T21:20:46.993Z,88.02
2023-03-06T21:23:14.081Z,87.88
2023-03-06T21:25:52.273Z,87.71
2023-03-06T21:28:19.732Z,88.17
2023-03-06T21:30:47.071Z,88.05
2023-03-06T21:33:16.182Z,88.82
2023-03-06T21:35:45.345Z,88.82
2023-03-06T21:38:13.901Z,88.69
2023-03-06T21:40:40.971Z,88.64
2023-03-06T21:43:09.052Z,88.98
2023-03-06T21:45:36.146Z,88.92
2023-03-06T21:48:04.231Z,89.40
2023-03-06T21:50:31.276Z,89.48
2023-03-06T21:52:58.450Z,90.19
2023-03-06T21:55:25.605Z,90.43
2023-03-06T21:57:54.084Z,89.83
2023-03-06T22:00:23.913Z,90.58
2023-03-06T22:02:51.130Z,91.17
2023-03-06T22:05:18.690Z,91.07
2023-03-06T22:07:45.815Z,90.59
2023-03-06T22:10:14.432Z,90.71
2023-03-06T22:12:42.204Z,90.48
2023-03-06T22:15:09.901Z,90.06
2023-03-06T22:17:37.011Z,90.17
2023-03-06T22:20:04.678Z,90.20
2023-03-06T22:22:31.772Z,90.28
2023-03-06T22:24:58.950Z,90.98
2023-03-06T22:27:26.059Z,91.07
2023-03-06T22:29:53.411Z,91.39
2023-03-06T22:32:20.739Z,91.60
2023-03-06T22:34:47.829Z,91.83
2023-03-06T22:37:14.929Z,91.88
2023-03-06T22:39:41.990Z,91.98
2023-03-06T22:42:09.114Z,91.66
2023-03-06T22:44:36.156Z,91.40
2023-03-06T22:47:03.348Z,90.89
2023-03-06T22:49:30.353Z,90.49
2023-03-06T22:51:57.432Z,90.23
2023-03-06T22:54:24.471Z,90.68
2023-03-06T22:56:51.494Z,90.12
2023-03-06T22:59:18.591Z,90.67
2023-03-06T23:01:45.733Z,90.39
2023-03-06T23:04:12.985Z,89.97
2023-03-06T23:06:43.313Z,90.12
2023-03-06T23:09:14.900Z,89.90
2023-03-06T23:12:00.850Z,89.86
2023-03-06T23:14:49.904Z,90.34
2023-03-06T23:17:36.241Z,90.66
2023-03-06T23:20:22.167Z,90.73
2023-03-06T23:23:08.035Z,90.54
2023-03-06T23:25:41.309Z,90.39
2023-03-06T23:28:08.445Z,90.44
2023-03-06T23:30:35.526Z,90.10
2023-03-06T23:33:02.612Z,90.12
2023-03-06T23:35:29.737Z,90.33
2023-03-06T23:37:57.736Z,90.11
2023-03-06T23:40:25.072Z,90.14
2023-03-06T23:42:52.203Z,89.65
2023-03-06T23:45:19.515Z,89.95
2023-03-06T23:47:46.625Z,89.81
2023-03-06T23:50:14.367Z,89.94
2023-03-06T23:52:41.398Z,90.17
2023-03-06T23:55:09.185Z,89.71
2023-03-06T23:57:36.232Z,89.81
